createdAt,value
2023-05-07T00:01:12.075Z,96840.84
2023-05-07T00:06:05.769Z,96841.78
2023-05-07T00:10:59.358Z,96844.84
2023-05-07T00:15:52.756Z,96847.53
2023-05-07T00:20:47.482Z,96846.78
2023-05-07T00:25:40.764Z,96853.16
2023-05-07T00:30:34.505Z,96838.47
2023-05-07T00:35:28.036Z,96823.81
2023-05-07T00:40:22.847Z,96814.72
2023-05-07T00:45:16.665Z,96820.63
2023-05-07T00:50:13.780Z,96812.41
2023-05-07T00:55:09.464Z,96820.25
2023-05-07T01:00:05.565Z,96813.69
2023-05-07T01:04:59.229Z,96807.59
2023-05-07T01:09:53.605Z,96811.44
2023-05-07T01:14:47.130Z,96814.44
2023-05-07T01:19:41.863Z,96809.56
2023-05-07T01:24:39.028Z,96814.75
2023-05-07T01:29:32.409Z,96814.38
2023-05-07T01:34:28.110Z,96820.91
2023-05-07T01:39:21.650Z,96811.72
2023-05-07T01:44:18.869Z,96820.19
2023-05-07T01:49:12.425Z,96824.75
2023-05-07T01:54:06.242Z,96812.00
2023-05-07T01:58:59.709Z,96803.38
2023-05-07T02:03:54.894Z,96809.63
2023-05-07T02:08:49.622Z,96824.56
2023-05-07T02:13:43.880Z,96816.19
2023-05-07T02:18:37.827Z,96814.41
2023-05-07T02:23:32.480Z,96810.97
2023-05-07T02:28:25.874Z,96807.22
2023-05-07T02:33:19.125Z,96822.34
2023-05-07T02:38:12.728Z,96816.09
2023-05-07T02:43:07.526Z,96811.38
2023-05-07T02:48:01.019Z,96810.84
2023-05-07T02:52:54.378Z,96819.31
2023-05-07T02:57:47.731Z,96819.88
2023-05-07T03:02:42.569Z,96819.31
2023-05-07T03:07:36.185Z,96820.00
2023-05-07T03:12:29.712Z,96833.34
2023-05-07T03:17:24.893Z,96826.97
2023-05-07T03:22:19.706Z,96825.44
2023-05-07T03:27:13.018Z,96824.88
2023-05-07T03:32:07.052Z,96826.00
2023-05-07T03:37:00.564Z,96830.44
2023-05-07T03:41:55.804Z,96830.28
2023-05-07T03:46:49.160Z,96839.41
2023-05-07T03:51:42.572Z,96834.84
2023-05-07T03:56:35.956Z,96839.03
2023-05-07T04:01:30.697Z,96845.41
2023-05-07T04:06:24.020Z,96843.59
2023-05-07T04:11:17.314Z,96842.63
2023-05-07T04:16:10.733Z,96844.03
2023-05-07T04:21:05.901Z,96840.69
2023-05-07T04:25:59.456Z,96847.88
2023-05-07T04:30:52.782Z,96847.06
2023-05-07T04:35:46.173Z,96832.78
2023-05-07T04:40:41.069Z,96842.25
2023-05-07T04:45:34.730Z,96845.69
2023-05-07T04:50:28.167Z,96851.53
2023-05-07T04:55:21.764Z,96849.25
2023-05-07T05:00:23.972Z,96857.41
2023-05-07T05:05:17.433Z,96854.03
2023-05-07T05:10:11.493Z,96875.56
2023-05-07T05:15:06.380Z,96870.75
2023-05-07T05:20:01.082Z,96879.84
2023-05-07T05:24:54.345Z,96884.25
2023-05-07T05:29:47.639Z,96883.59
2023-05-07T05:34:40.984Z,96876.88
2023-05-07T05:39:35.699Z,96876.75
2023-05-07T05:44:29.092Z,96876.66
2023-05-07T05:49:22.549Z,96874.72
2023-05-07T05:54:16.165Z,96866.19
2023-05-07T05:59:11.516Z,96870.16
2023-05-07T06:04:05.146Z,96867.25
2023-05-07T06:08:58.442Z,96858.25
2023-05-07T06:13:51.715Z,96856.53
2023-05-07T06:18:47.773Z,96862.34
2023-05-07T06:23:41.919Z,96860.34
2023-05-07T06:28:36.942Z,96863.88
2023-05-07T06:33:30.280Z,96872.41
2023-05-07T06:38:25.249Z,96887.03
2023-05-07T06:43:18.618Z,96892.72
2023-05-07T06:48:12.573Z,96900.81
2023-05-07T06:53:05.928Z,96906.19
2023-05-07T06:58:02.254Z,96905.88
2023-05-07T07:02:55.797Z,96914.50
2023-05-07T07:08:00.193Z,96923.59
2023-05-07T07:12:53.964Z,96924.94
2023-05-07T07:17:48.728Z,96931.34
2023-05-07T07:22:42.162Z,96937.75
2023-05-07T07:27:35.497Z,96953.31
2023-05-07T07:32:29.060Z,96954.72
2023-05-07T07:37:23.779Z,96967.13
2023-05-07T07:42:17.170Z,96969.13
2023-05-07T07:47:10.605Z,96967.28
2023-05-07T07:52:04.254Z,96966.84
2023-05-07T07:56:58.984Z,96969.69
2023-05-07T08:01:55.537Z,96971.41
2023-05-07T08:06:49.099Z,96971.06
2023-05-07T08:11:43.010Z,96977.78
2023-05-07T08:16:37.718Z,96981.59
2023-05-07T08:21:33.741Z,96977.28
2023-05-07T08:26:28.017Z,96978.44
2023-05-07T08:31:21.587Z,96989.22
2023-05-07T08:36:16.402Z,96991.34
2023-05-07T08:41:12.836Z,96992.00
2023-05-07T08:46:10.102Z,96988.34
2023-05-07T08:51:03.960Z,96980.97
2023-05-07T08:55:59.653Z,96975.25
2023-05-07T09:00:56.139Z,96979.19
2023-05-07T09:06:43.079Z,96977.97
2023-05-07T09:11:37.885Z,96978.13
2023-05-07T09:16:33.036Z,96970.09
2023-05-07T09:21:26.853Z,96962.00
2023-05-07T09:26:21.341Z,96969.47
2023-05-07T09:31:16.882Z,96971.56
2023-05-07T09:36:12.523Z,96966.78
2023-05-07T09:41:08.062Z,96963.81
2023-05-07T09:46:06.615Z,96962.44
2023-05-07T09:51:06.693Z,96958.84
2023-05-07T09:56:03.605Z,96960.13
2023-05-07T10:00:59.978Z,96956.28
2023-05-07T10:05:54.323Z,96948.72
2023-05-07T10:10:49.667Z,96956.53
2023-05-07T10:15:43.871Z,96948.28
2023-05-07T10:20:41.039Z,96938.63
2023-05-07T10:25:35.492Z,96932.72
2023-05-07T10:30:47.178Z,96926.00
2023-05-07T10:35:44.614Z,96921.84
2023-05-07T10:40:38.436Z,96907.41
2023-05-07T10:45:34.512Z,96908.75
2023-05-07T10:50:27.914Z,96911.91
2023-05-07T10:55:26.091Z,96906.22
2023-05-07T11:00:45.691Z,96903.13
2023-05-07T11:05:39.717Z,96900.88
2023-05-07T11:10:54.531Z,96902.38
2023-05-07T11:15:50.727Z,96894.72
2023-05-07T11:20:59.126Z,96895.00
2023-05-07T11:25:52.688Z,96890.84
2023-05-07T11:30:47.228Z,96892.88
2023-05-07T11:35:44.460Z,96892.88
2023-05-07T11:40:51.086Z,96892.66
2023-05-07T11:45:44.532Z,96889.16
2023-05-07T11:50:37.869Z,96884.09
2023-05-07T11:55:32.896Z,96876.13
2023-05-07T12:00:26.213Z,96890.75
2023-05-07T12:05:19.700Z,96885.91
2023-05-07T12:10:14.902Z,96886.66
2023-05-07T12:15:11.703Z,96879.97
2023-05-07T12:20:06.732Z,96880.44
2023-05-07T12:25:01.116Z,96884.75
2023-05-07T12:29:54.495Z,96875.16
2023-05-07T12:34:53.093Z,96871.28
2023-05-07T12:39:50.917Z,96870.09
2023-05-07T12:49:46.938Z,96857.38
2023-05-07T12:54:41.618Z,96854.28
2023-05-07T12:59:36.691Z,96849.31
2023-05-07T13:04:30.116Z,96832.13
2023-05-07T13:14:32.106Z,96843.63
2023-05-07T13:19:25.462Z,96846.84
2023-05-07T13:24:18.845Z,96846.97
2023-05-07T13:29:12.322Z,96845.50
2023-05-07T13:34:07.017Z,96844.84
2023-05-07T13:39:01.572Z,96840.22
2023-05-07T13:43:54.911Z,96829.41
2023-05-07T13:48:48.305Z,96819.53
2023-05-07T13:53:42.893Z,96816.47
2023-05-07T13:58:42.261Z,96812.34
2023-05-07T14:03:40.760Z,96812.09
2023-05-07T14:08:34.281Z,96813.78
2023-05-07T14:13:29.139Z,96817.88
2023-05-07T14:18:22.491Z,96819.78
2023-05-07T14:23:15.841Z,96816.41
2023-05-07T14:28:12.054Z,96802.31
2023-05-07T14:33:06.758Z,96814.66
2023-05-07T14:38:00.017Z,96818.38
2023-05-07T14:42:53.517Z,96809.56
2023-05-07T14:47:46.862Z,96798.16
2023-05-07T14:52:41.564Z,96809.56
2023-05-07T14:57:35.981Z,96818.13
2023-05-07T15:07:44.266Z,96823.97
2023-05-07T15:22:48.076Z,96859.84
2023-05-07T15:27:41.634Z,96872.06
2023-05-07T15:32:35.827Z,96865.25
2023-05-07T15:37:29.342Z,96868.50
2023-05-07T15:58:06.732Z,96869.88
2023-05-07T16:03:00.277Z,96872.16
2023-05-07T16:07:57.348Z,96887.47
2023-05-07T16:12:53.083Z,96887.28
2023-05-07T16:17:50.928Z,96892.75
2023-05-07T16:22:44.696Z,96903.19
2023-05-07T16:27:38.305Z,96919.50
2023-05-07T16:32:41.399Z,96912.13
2023-05-07T16:37:44.649Z,96916.22
2023-05-07T16:43:04.445Z,96922.97
2023-05-07T16:47:58.771Z,96937.28
2023-05-07T16:52:53.578Z,96942.00
2023-05-07T16:57:46.892Z,96961.34
2023-05-07T17:02:40.259Z,96970.66
2023-05-07T17:07:33.700Z,96989.38
2023-05-07T17:12:29.286Z,97010.31
2023-05-07T17:17:22.623Z,97035.75
2023-05-07T17:32:21.264Z,97059.13
2023-05-07T17:37:15.265Z,97061.31
2023-05-07T17:42:09.940Z,97066.44
2023-05-07T17:47:03.796Z,97068.91
2023-05-07T17:51:58.541Z,97062.16
2023-05-07T17:56:54.697Z,97074.63
2023-05-07T18:01:48.216Z,97075.84
2023-05-07T18:06:42.169Z,97085.44
2023-05-07T18:11:39.410Z,97081.66
2023-05-07T18:16:33.014Z,97087.84
2023-05-07T18:21:29.324Z,97091.25
2023-05-07T18:26:26.738Z,97086.72
2023-05-07T18:31:30.114Z,97097.19
2023-05-07T18:36:25.041Z,97098.56
2023-05-07T18:41:20.417Z,97092.78
2023-05-07T18:46:13.815Z,97099.16
2023-05-07T18:51:12.518Z,97104.44
2023-05-07T18:56:06.650Z,97118.44
2023-05-07T19:01:00.026Z,97118.66
2023-05-07T19:05:55.948Z,97130.25
2023-05-07T19:10:58.986Z,97131.25
2023-05-07T19:15:54.430Z,97124.06
2023-05-07T19:20:55.440Z,97128.75
2023-05-07T19:25:51.367Z,97136.47
2023-05-07T19:30:49.866Z,97144.88
2023-05-07T19:35:43.419Z,97147.53
2023-05-07T19:40:39.118Z,97151.00
2023-05-07T19:45:32.765Z,97163.03
2023-05-07T19:50:30.244Z,97164.03
2023-05-07T19:55:25.159Z,97164.63
2023-05-07T20:00:18.750Z,97158.03
2023-05-07T20:05:13.940Z,97167.75
2023-05-07T20:10:10.704Z,97181.06
2023-05-07T20:15:06.419Z,97177.97
2023-05-07T20:19:59.737Z,97192.88
2023-05-07T20:24:53.105Z,97196.09
2023-05-07T20:29:48.382Z,97201.56
2023-05-07T20:34:42.132Z,97204.53
2023-05-07T20:39:35.459Z,97205.06
2023-05-07T20:44:33.473Z,97200.41
2023-05-07T20:49:28.199Z,97205.38
2023-05-07T20:54:25.990Z,97218.94
2023-05-07T20:59:19.294Z,97220.38
2023-05-07T21:04:12.606Z,97216.66
2023-05-07T21:09:07.933Z,97219.03
2023-05-07T21:14:01.320Z,97209.28
2023-05-07T21:18:54.613Z,97213.22
2023-05-07T21:23:47.911Z,97206.50
2023-05-07T21:28:42.668Z,97202.44
2023-05-07T21:33:35.978Z,97204.75
2023-05-07T21:38:29.336Z,97210.25
2023-05-07T21:43:22.609Z,97211.91
2023-05-07T21:48:21.470Z,97207.38
2023-05-07T21:53:14.736Z,97213.66
2023-05-07T21:58:07.976Z,97210.19
2023-05-07T22:03:01.481Z,97212.41
2023-05-07T22:07:56.442Z,97206.22
2023-05-07T22:12:52.527Z,97221.16
2023-05-07T22:17:45.923Z,97217.41
2023-05-07T22:22:49.530Z,97217.56
2023-05-07T22:27:46.640Z,97208.34
2023-05-07T22:32:40.086Z,97217.38
2023-05-07T22:37:33.422Z,97215.50
2023-05-07T22:42:26.769Z,97219.94
2023-05-07T22:47:21.454Z,97223.69
2023-05-07T22:52:14.808Z,97227.03
2023-05-07T22:57:08.155Z,97218.41
2023-05-07T23:02:01.480Z,97216.91
2023-05-07T23:06:56.137Z,97219.81
2023-05-07T23:11:49.361Z,97222.19
2023-05-07T23:16:42.803Z,97224.41
2023-05-07T23:21:36.261Z,97229.44
2023-05-07T23:26:30.932Z,97230.78
2023-05-07T23:31:24.356Z,97224.50
2023-05-07T23:36:17.675Z,97222.31
2023-05-07T23:41:10.984Z,97222.91
2023-05-07T23:46:05.716Z,97222.63
2023-05-07T23:50:58.982Z,97227.19
2023-05-07T23:55:52.233Z,97230.13
